Time;durP1;ratioP1;P1;durP2;ratioP2;P2;SDS_P1;SDS_P2;PMS_P1;PMS_P2;Temp;Humidity;BMP_temperature;BMP_pressure;BME280_temperature;BME280_humidity;BME280_pressure;Samples;Min_cycle;Max_cycle;Signal;HPM_P1;HPM_P2
2022/04/22 00:01:01;;;;;;;;;;;;;;;-155.54;100.00;57697.75;5012097;28;20403;-66
2022/04/22 00:03:26;;;;;;;;;;;;;;;-155.54;100.00;57697.75;5006920;28;20503;-65
2022/04/22 00:05:51;;;;;;;;;;;;;;;-155.54;100.00;57697.75;4999482;28;19974;-66
2022/04/22 00:08:16;;;;;;;;;;;;;;;-155.54;100.00;57697.75;5000046;28;20021;-66
2022/04/22 00:13:27;;;;;;;;;;;;;;;-155.54;100.00;57697.75;5000255;28;20212;-66
2022/04/22 00:15:52;;;;;;;;;;;;;;;-155.54;100.00;57697.75;5039693;28;19988;-65
2022/04/22 00:18:18;;;;;;;;;;;;;;;-155.54;100.00;57697.75;5039914;28;20360;-66
2022/04/22 00:20:43;;;;;;;;;;;;;;;-155.54;100.00;57697.75;4999432;28;20323;-66
2022/04/22 00:23:08;;;;;;;;;;;;;;;-155.54;100.00;57697.75;4981074;28;19993;-66
2022/04/22 00:25:33;;;;;;;;;;;;;;;-155.54;100.00;57697.75;5016989;28;20461;-66
2022/04/22 00:27:58;;;;;;;;;;;;;;;-155.54;100.00;57697.75;5018008;28;20096;-66
2022/04/22 00:30:24;;;;;;;;;;;;;;;-155.54;100.00;57697.75;5016471;28;20016;-66
2022/04/22 00:32:49;;;;;;;;;;;;;;;-155.54;100.00;57697.75;5010873;28;20049;-67
2022/04/22 00:35:14;;;;;;;;;;;;;;;-155.54;100.00;57697.75;5015185;28;19963;-65
2022/04/22 00:37:40;;;;;;;;;;;;;;;-155.54;100.00;57697.75;5014744;28;20285;-66
2022/04/22 00:40:05;;;;;;;;;;;;;;;-155.54;100.00;57697.75;5010205;28;20112;-67
2022/04/22 00:42:31;;;;;;;;;;;;;;;-155.54;100.00;57697.75;4993976;28;20351;-67
2022/04/22 00:44:57;;;;;;;;;;;;;;;-155.54;100.00;57697.75;4987132;28;20085;-66
2022/04/22 00:47:22;;;;;;;;;;;;;;;-155.54;100.00;57697.75;5003538;28;20419;-66
2022/04/22 00:49:47;;;;;;;;;;;;;;;-155.54;100.00;57697.75;5036014;28;20426;-65
2022/04/22 00:52:14;;;;;;;;;;;;;;;-155.54;100.00;57697.75;4994919;28;20339;-66
2022/04/22 00:54:39;;;;;;;;;;;;;;;-155.54;100.00;57697.75;4981952;28;20055;-66
2022/04/22 00:57:04;;;;;;;;;;;;;;;-155.54;100.00;57697.75;5007744;28;19985;-67
2022/04/22 00:59:30;;;;;;;;;;;;;;;-155.54;100.00;57697.75;5016764;28;19999;-66
2022/04/22 01:01:55;;;;;;;;;;;;;;;-155.54;100.00;57697.75;5017349;28;19980;-66
2022/04/22 01:09:48;;;;;;;;;;;;;;;-155.54;100.00;57697.75;5021514;28;20568;-67
2022/04/22 01:12:13;;;;;;;;;;;;;;;-155.54;100.00;57697.75;5021742;28;20351;-66
2022/04/22 01:14:39;;;;;;;;;;;;;;;-155.54;100.00;57697.75;5022271;28;19957;-66
2022/04/22 01:17:04;;;;;;;;;;;;;;;-155.54;100.00;57697.75;5021525;28;20088;-67
2022/04/22 01:19:29;;;;;;;;;;;;;;;-155.54;100.00;57697.75;5021468;28;20434;-66
2022/04/22 01:21:55;;;;;;;;;;;;;;;-155.54;100.00;57697.75;5021772;28;20427;-67
2022/04/22 01:24:20;;;;;;;;;;;;;;;-155.54;100.00;57697.75;5021334;28;20654;-66
2022/04/22 01:26:45;;;;;;;;;;;;;;;-155.54;100.00;57697.75;5021469;28;20060;-67
2022/04/22 01:29:11;;;;;;;;;;;;;;;-155.54;100.00;57697.75;5020809;28;20026;-66
2022/04/22 01:31:36;;;;;;;;;;;;;;;-155.54;100.00;57697.75;5028270;28;19993;-67
2022/04/22 01:34:01;;;;;;;;;;;;;;;-155.54;100.00;57697.75;5011749;28;19961;-67
2022/04/22 01:36:27;;;;;;;;;;;;;;;-155.54;100.00;57697.75;5004946;28;19989;-67
2022/04/22 01:38:53;;;;;;;;;;;;;;;-155.54;100.00;57697.75;4991893;28;20027;-67
2022/04/22 01:41:21;;;;;;;;;;;;;;;-155.54;100.00;57697.75;4997478;28;19981;-67
2022/04/22 01:43:46;;;;;;;;;;;;;;;-155.54;100.00;57697.75;4997636;28;19986;-67
2022/04/22 01:46:12;;;;;;;;;;;;;;;-155.54;100.00;57697.75;4997775;28;20488;-67
2022/04/22 01:48:37;;;;;;;;;;;;;;;-155.54;100.00;57697.75;4996740;28;20303;-66
2022/04/22 01:51:02;;;;;;;;;;;;;;;-155.54;100.00;57697.75;4996845;28;20475;-66
2022/04/22 01:53:28;;;;;;;;;;;;;;;-155.54;100.00;57697.75;4996870;28;20067;-66
2022/04/22 01:55:53;;;;;;;;;;;;;;;-155.54;100.00;57697.75;4997275;28;19984;-66
2022/04/22 01:58:19;;;;;;;;;;;;;;;-155.54;100.00;57697.75;4996602;28;19964;-67
2022/04/22 02:00:44;;;;;;;;;;;;;;;-155.54;100.00;57697.75;4995936;28;20356;-66
2022/04/22 02:03:09;;;;;;;;;;;;;;;-155.54;100.00;57697.75;4997148;28;20011;-67
2022/04/22 02:05:34;;;;;;;;;;;;;;;-155.54;100.00;57697.75;4999615;28;20064;-67
2022/04/22 02:08:00;;;;;;;;;;;;;;;-155.54;100.00;57697.75;4999133;28;20020;-67
2022/04/22 02:10:25;;;;;;;;;;;;;;;-155.54;100.00;57697.75;5001314;28;20506;-66
2022/04/22 02:12:50;;;;;;;;;;;;;;;-155.54;100.00;57697.75;5000518;28;19996;-67
2022/04/22 02:15:18;;;;;;;;;;;;;;;-155.54;100.00;57697.75;5000824;28;20014;-66
2022/04/22 02:17:43;;;;;;;;;;;;;;;-155.54;100.00;57697.75;5001723;28;20368;-66
2022/04/22 02:20:10;;;;;;;;;;;;;;;-155.54;100.00;57697.75;5001336;28;20275;-67
2022/04/22 02:22:36;;;;;;;;;;;;;;;-155.54;100.00;57697.75;5003050;28;19975;-66
2022/04/22 02:25:01;;;;;;;;;;;;;;;-155.54;100.00;57697.75;5004964;28;19987;-66
2022/04/22 02:30:11;;;;;;;;;;;;;;;-155.54;100.00;57697.75;5005416;28;19964;-66
2022/04/22 02:32:36;;;;;;;;;;;;;;;-155.54;100.00;57697.75;5004856;28;20565;-66
2022/04/22 02:35:02;;;;;;;;;;;;;;;-155.54;100.00;57697.75;5002777;28;20007;-67
2022/04/22 02:37:27;;;;;;;;;;;;;;;-155.54;100.00;57697.75;4999608;28;20073;-66
2022/04/22 02:39:53;;;;;;;;;;;;;;;-155.54;100.00;57697.75;5005277;28;20446;-66
2022/04/22 02:47:45;;;;;;;;;;;;;;;-155.54;100.00;57697.75;4996712;28;19999;-67
2022/04/22 02:50:11;;;;;;;;;;;;;;;-155.54;100.00;57697.75;5002964;28;20429;-66
2022/04/22 02:52:36;;;;;;;;;;;;;;;-155.54;100.00;57697.75;5019761;28;19990;-66
2022/04/22 02:55:01;;;;;;;;;;;;;;;-155.54;100.00;57697.75;5038044;28;20020;-66
2022/04/22 02:57:26;;;;;;;;;;;;;;;-155.54;100.00;57697.75;5026357;28;20471;-67
2022/04/22 02:59:52;;;;;;;;;;;;;;;-155.54;100.00;57697.75;5027551;28;20027;-66
2022/04/22 03:02:17;;;;;;;;;;;;;;;-155.54;100.00;57697.75;5032556;28;20019;-66
2022/04/22 03:04:42;;;;;;;;;;;;;;;-155.54;100.00;57697.75;5006134;28;19995;-66
2022/04/22 03:07:07;;;;;;;;;;;;;;;-155.54;100.00;57697.75;4998989;28;20312;-66
2022/04/22 03:09:33;;;;;;;;;;;;;;;-155.54;100.00;57697.75;5020468;28;20030;-66
2022/04/22 03:11:58;;;;;;;;;;;;;;;-155.54;100.00;57697.75;5033750;28;20073;-67
2022/04/22 03:14:24;;;;;;;;;;;;;;;-155.54;100.00;57697.75;5036156;28;19959;-66
2022/04/22 03:16:49;;;;;;;;;;;;;;;-155.54;100.00;57697.75;5034613;28;20089;-66
2022/04/22 03:19:14;;;;;;;;;;;;;;;-155.54;100.00;57697.75;5028448;28;20539;-66
2022/04/22 03:21:40;;;;;;;;;;;;;;;-155.54;100.00;57697.75;5036333;28;20412;-66
2022/04/22 03:24:06;;;;;;;;;;;;;;;-155.54;100.00;57697.75;5037976;28;20335;-67
2022/04/22 03:26:32;;;;;;;;;;;;;;;-155.54;100.00;57697.75;5032620;28;19961;-66
2022/04/22 03:28:57;;;;;;;;;;;;;;;-155.54;100.00;57697.75;5037226;28;20511;-67
2022/04/22 03:31:22;;;;;;;;;;;;;;;-155.54;100.00;57697.75;5035234;28;20055;-67
2022/04/22 03:33:47;;;;;;;;;;;;;;;-155.54;100.00;57697.75;5037833;28;20448;-66
2022/04/22 03:36:13;;;;;;;;;;;;;;;-155.54;100.00;57697.75;5033429;28;19978;-66
2022/04/22 03:38:38;;;;;;;;;;;;;;;-155.54;100.00;57697.75;5035691;28;19970;-67
2022/04/22 03:41:03;;;;;;;;;;;;;;;-155.54;100.00;57697.75;5033842;28;20004;-66
2022/04/22 03:43:29;;;;;;;;;;;;;;;-155.54;100.00;57697.75;5035623;28;20078;-66
2022/04/22 03:45:54;;;;;;;;;;;;;;;-155.54;100.00;57697.75;5033853;28;20275;-67
2022/04/22 03:48:19;;;;;;;;;;;;;;;-155.54;100.00;57697.75;5028626;28;20477;-66
2022/04/22 03:50:44;;;;;;;;;;;;;;;-155.54;100.00;57697.75;5027098;28;20057;-66
2022/04/22 03:53:12;;;;;;;;;;;;;;;-155.54;100.00;57697.75;5044456;28;20556;-67
2022/04/22 03:55:42;;;;;;;;;;;;;;;-155.54;100.00;57697.75;5034837;28;20662;-67
2022/04/22 03:58:10;;;;;;;;;;;;;;;-155.54;100.00;57697.75;5031434;28;20382;-67
2022/04/22 04:00:40;;;;;;;;;;;;;;;-155.54;100.00;57697.75;5022185;28;20407;-66
2022/04/22 04:03:11;;;;;;;;;;;;;;;-155.54;100.00;57697.75;5031084;28;20014;-66
2022/04/22 04:05:37;;;;;;;;;;;;;;;-155.54;100.00;57697.75;4993780;28;19992;-66
2022/04/22 04:08:02;;;;;;;;;;;;;;;-155.54;100.00;57697.75;5013482;28;19991;-67
2022/04/22 04:15:58;;;;;;;;;;;;;;;-155.54;100.00;57697.75;5041377;28;20525;-67
2022/04/22 04:18:26;;;;;;;;;;;;;;;-155.54;100.00;57697.75;5040438;28;20011;-67
2022/04/22 04:23:36;;;;;;;;;;;;;;;-155.54;100.00;57697.75;5004546;28;20045;-66
2022/04/22 04:26:01;;;;;;;;;;;;;;;-155.54;100.00;57697.75;5017903;28;20442;-67
2022/04/22 04:28:29;;;;;;;;;;;;;;;-155.54;100.00;57697.75;5014670;28;20093;-66
2022/04/22 04:30:57;;;;;;;;;;;;;;;-155.54;100.00;57697.75;5022011;28;19993;-66
2022/04/22 04:33:22;;;;;;;;;;;;;;;-155.54;100.00;57697.75;5036244;28;19981;-66
2022/04/22 04:35:48;;;;;;;;;;;;;;;-155.54;100.00;57697.75;5038762;28;19989;-66
2022/04/22 04:38:13;;;;;;;;;;;;;;;-155.54;100.00;57697.75;5032176;28;19993;-67
2022/04/22 04:40:38;;;;;;;;;;;;;;;-155.54;100.00;57697.75;5033382;28;19993;-66
2022/04/22 04:43:05;;;;;;;;;;;;;;;-155.54;100.00;57697.75;5033117;28;20018;-66
2022/04/22 04:45:31;;;;;;;;;;;;;;;-155.54;100.00;57697.75;5034473;28;19963;-67
2022/04/22 04:47:56;;;;;;;;;;;;;;;-155.54;100.00;57697.75;5027935;28;19993;-67
2022/04/22 04:50:21;;;;;;;;;;;;;;;-155.54;100.00;57697.75;4991475;28;19961;-67
2022/04/22 04:52:47;;;;;;;;;;;;;;;-155.54;100.00;57697.75;4992516;28;19992;-66
2022/04/22 04:55:13;;;;;;;;;;;;;;;-155.54;100.00;57697.75;5000349;28;20526;-67
2022/04/22 04:57:38;;;;;;;;;;;;;;;-155.54;100.00;57697.75;4999259;28;20456;-66
2022/04/22 05:00:08;;;;;;;;;;;;;;;-155.54;100.00;57697.75;5001397;28;20029;-66
2022/04/22 05:02:33;;;;;;;;;;;;;;;-155.54;100.00;57697.75;5003774;28;20063;-68
2022/04/22 05:04:59;;;;;;;;;;;;;;;-155.54;100.00;57697.75;5017942;28;20072;-65
2022/04/22 05:07:24;;;;;;;;;;;;;;;-155.54;100.00;57697.75;5024866;28;20267;-65
2022/04/22 05:09:49;;;;;;;;;;;;;;;-155.54;100.00;57697.75;5033949;28;20458;-65
2022/04/22 05:12:14;;;;;;;;;;;;;;;-155.54;100.00;57697.75;5005864;28;20028;-65
2022/04/22 05:14:40;;;;;;;;;;;;;;;-155.54;100.00;57697.75;4984197;28;19993;-65
2022/04/22 05:17:05;;;;;;;;;;;;;;;-155.54;100.00;57697.75;4997778;28;20545;-65
2022/04/22 05:19:30;;;;;;;;;;;;;;;-155.54;100.00;57697.75;5001585;28;20012;-65
2022/04/22 05:21:56;;;;;;;;;;;;;;;-155.54;100.00;57697.75;5003074;28;20181;-65
2022/04/22 05:24:21;;;;;;;;;;;;;;;-155.54;100.00;57697.75;5023028;28;20040;-65
2022/04/22 05:26:46;;;;;;;;;;;;;;;-155.54;100.00;57697.75;5035021;28;20165;-65
2022/04/22 05:34:39;;;;;;;;;;;;;;;-155.54;100.00;57697.75;5034727;28;19994;-64
2022/04/22 05:37:05;;;;;;;;;;;;;;;-155.54;100.00;57697.75;5042133;28;19990;-64
2022/04/22 05:39:30;;;;;;;;;;;;;;;-155.54;100.00;57697.75;5024222;28;20078;-65
2022/04/22 05:41:55;;;;;;;;;;;;;;;-155.54;100.00;57697.75;5042603;28;20005;-65
2022/04/22 05:44:20;;;;;;;;;;;;;;;-155.54;100.00;57697.75;5033575;28;19984;-65
2022/04/22 05:46:46;;;;;;;;;;;;;;;-155.54;100.00;57697.75;5027390;28;19997;-65
2022/04/22 05:49:11;;;;;;;;;;;;;;;-155.54;100.00;57697.75;5005655;28;20014;-65
2022/04/22 05:51:36;;;;;;;;;;;;;;;-155.54;100.00;57697.75;4988455;28;20078;-65
2022/04/22 05:54:01;;;;;;;;;;;;;;;-155.54;100.00;57697.75;5000763;28;20463;-65
2022/04/22 05:56:26;;;;;;;;;;;;;;;-155.54;100.00;57697.75;5012993;28;20275;-66
2022/04/22 05:58:52;;;;;;;;;;;;;;;-155.54;100.00;57697.75;5020824;28;19973;-65
2022/04/22 06:01:17;;;;;;;;;;;;;;;-155.54;100.00;57697.75;5039590;28;20312;-65
2022/04/22 06:03:42;;;;;;;;;;;;;;;-155.54;100.00;57697.75;5031555;28;20452;-65
2022/04/22 06:06:07;;;;;;;;;;;;;;;-155.54;100.00;57697.75;5042173;28;20380;-66
2022/04/22 06:11:24;;;;;;;;;;;;;;;-155.54;100.00;57697.75;4980627;28;19967;-65
2022/04/22 06:13:49;;;;;;;;;;;;;;;-155.54;100.00;57697.75;5002334;28;20492;-65
2022/04/22 06:16:14;;;;;;;;;;;;;;;-155.54;100.00;57697.75;5012199;28;20060;-65
2022/04/22 06:18:40;;;;;;;;;;;;;;;-155.54;100.00;57697.75;5019788;28;19975;-65
2022/04/22 06:21:05;;;;;;;;;;;;;;;-155.54;100.00;57697.75;5036859;28;19989;-65
2022/04/22 06:23:30;;;;;;;;;;;;;;;-155.54;100.00;57697.75;5025766;28;20021;-65
2022/04/22 06:25:55;;;;;;;;;;;;;;;-155.54;100.00;57697.75;4985170;28;20266;-65
2022/04/22 06:28:21;;;;;;;;;;;;;;;-155.54;100.00;57697.75;4991327;28;20380;-65
2022/04/22 06:30:47;;;;;;;;;;;;;;;-155.54;100.00;57697.75;4999929;28;20014;-65
2022/04/22 06:33:13;;;;;;;;;;;;;;;-155.54;100.00;57697.75;4989612;28;19993;-65
2022/04/22 06:35:38;;;;;;;;;;;;;;;-155.54;100.00;57697.75;4984991;28;19996;-65
2022/04/22 06:38:03;;;;;;;;;;;;;;;-155.54;100.00;57697.75;4995026;28;20007;-65
2022/04/22 06:45:59;;;;;;;;;;;;;;;-155.54;100.00;57697.75;5015477;28;19989;-65
2022/04/22 06:48:33;;;;;;;;;;;;;;;-155.54;100.00;57697.75;5015538;28;19988;-65
2022/04/22 06:50:59;;;;;;;;;;;;;;;-155.54;100.00;57697.75;5017779;28;19968;-65
2022/04/22 06:53:24;;;;;;;;;;;;;;;-155.54;100.00;57697.75;5003516;28;19988;-65
2022/04/22 06:55:50;;;;;;;;;;;;;;;-155.54;100.00;57697.75;5005686;28;19992;-65
2022/04/22 06:58:15;;;;;;;;;;;;;;;-155.54;100.00;57697.75;5011818;28;19957;-65
2022/04/22 07:00:41;;;;;;;;;;;;;;;-155.54;100.00;57697.75;5015860;28;20032;-65
2022/04/22 07:03:07;;;;;;;;;;;;;;;-155.54;100.00;57697.75;5017962;28;20004;-66
2022/04/22 07:05:33;;;;;;;;;;;;;;;-155.54;100.00;57697.75;5006542;28;20468;-65
2022/04/22 07:07:59;;;;;;;;;;;;;;;-155.54;100.00;57697.75;5011789;28;19968;-65
2022/04/22 07:10:25;;;;;;;;;;;;;;;-155.54;100.00;57697.75;5020124;28;19957;-65
2022/04/22 07:12:50;;;;;;;;;;;;;;;-155.54;100.00;57697.75;5020582;28;20487;-65
2022/04/22 07:15:16;;;;;;;;;;;;;;;-155.54;100.00;57697.75;5004969;28;19974;-65
2022/04/22 07:17:42;;;;;;;;;;;;;;;-155.54;100.00;57697.75;5020211;28;20427;-65
2022/04/22 07:20:09;;;;;;;;;;;;;;;-155.54;100.00;57697.75;5017169;28;19994;-65
2022/04/22 07:22:38;;;;;;;;;;;;;;;-155.54;100.00;57697.75;5019471;28;20269;-64
2022/04/22 07:25:06;;;;;;;;;;;;;;;-155.54;100.00;57697.75;5006618;28;19975;-64
2022/04/22 07:27:36;;;;;;;;;;;;;;;-155.54;100.00;57697.75;5019015;28;19977;-65
2022/04/22 07:30:02;;;;;;;;;;;;;;;-155.54;100.00;57697.75;5018796;28;19957;-65
2022/04/22 07:32:28;;;;;;;;;;;;;;;-155.54;100.00;57697.75;5000879;28;20403;-65
2022/04/22 07:34:54;;;;;;;;;;;;;;;-155.54;100.00;57697.75;5004708;28;19973;-65
2022/04/22 07:37:20;;;;;;;;;;;;;;;-155.54;100.00;57697.75;4991353;28;20479;-64
2022/04/22 07:39:45;;;;;;;;;;;;;;;-155.54;100.00;57697.75;4980724;28;19973;-65
2022/04/22 07:42:14;;;;;;;;;;;;;;;-155.54;100.00;57697.75;4993419;28;20164;-65
2022/04/22 07:47:24;;;;;;;;;;;;;;;-155.54;100.00;57697.75;4997989;28;19954;-65
2022/04/22 07:49:50;;;;;;;;;;;;;;;-155.54;100.00;57697.75;5000274;28;20399;-65
2022/04/22 07:52:16;;;;;;;;;;;;;;;-155.54;100.00;57697.75;4997666;28;20085;-65
2022/04/22 07:54:41;;;;;;;;;;;;;;;-155.54;100.00;57697.75;4994100;28;20387;-64
2022/04/22 07:57:06;;;;;;;;;;;;;;;-155.54;100.00;57697.75;5025255;28;20014;-65
2022/04/22 07:59:32;;;;;;;;;;;;;;;-155.54;100.00;57697.75;5008084;28;19972;-65
2022/04/22 08:01:59;;;;;;;;;;;;;;;-155.54;100.00;57697.75;4989885;28;20335;-65
2022/04/22 08:04:25;;;;;;;;;;;;;;;-155.54;100.00;57697.75;5000276;28;20585;-64
2022/04/22 08:06:50;;;;;;;;;;;;;;;-155.54;100.00;57697.75;5036529;28;19990;-65
2022/04/22 08:09:16;;;;;;;;;;;;;;;-155.54;100.00;57697.75;5021599;28;20060;-65
2022/04/22 08:11:43;;;;;;;;;;;;;;;-155.54;100.00;57697.75;5039136;28;19968;-65
2022/04/22 08:14:11;;;;;;;;;;;;;;;-155.54;100.00;57697.75;5010149;28;20269;-65
2022/04/22 08:16:36;;;;;;;;;;;;;;;-155.54;100.00;57697.75;5028859;28;19971;-65
2022/04/22 08:19:02;;;;;;;;;;;;;;;-155.54;100.00;57697.75;5025878;28;19940;-65
2022/04/22 08:21:32;;;;;;;;;;;;;;;-155.54;100.00;57697.75;5038514;28;20050;-65
2022/04/22 08:23:57;;;;;;;;;;;;;;;-155.54;100.00;57697.75;5038677;28;20039;-65
2022/04/22 08:26:22;;;;;;;;;;;;;;;-155.54;100.00;57697.75;5039457;28;19989;-65
2022/04/22 08:28:48;;;;;;;;;;;;;;;-155.54;100.00;57697.75;5038661;28;19965;-65
2022/04/22 08:31:14;;;;;;;;;;;;;;;-155.54;100.00;57697.75;5034809;28;19965;-65
2022/04/22 08:33:40;;;;;;;;;;;;;;;-155.54;100.00;57697.75;5033730;28;20367;-65
2022/04/22 08:36:05;;;;;;;;;;;;;;;-155.54;100.00;57697.75;5025944;28;19978;-65
2022/04/22 08:38:30;;;;;;;;;;;;;;;-155.54;100.00;57697.75;5018510;28;19969;-65
2022/04/22 08:40:56;;;;;;;;;;;;;;;-155.54;100.00;57697.75;5021726;28;20088;-65
2022/04/22 08:43:21;;;;;;;;;;;;;;;-155.54;100.00;57697.75;5039412;28;19968;-65
2022/04/22 08:45:47;;;;;;;;;;;;;;;-155.54;100.00;57697.75;5039442;28;20429;-65
2022/04/22 08:50:56;;;;;;;;;;;;;;;-155.54;100.00;57697.75;5030719;28;19947;-65
2022/04/22 08:53:22;;;;;;;;;;;;;;;-155.54;100.00;57697.75;5033545;28;19965;-65
2022/04/22 08:55:50;;;;;;;;;;;;;;;-155.54;100.00;57697.75;5035341;28;20119;-65
2022/04/22 08:58:15;;;;;;;;;;;;;;;-155.54;100.00;57697.75;5010897;28;20412;-64
2022/04/22 09:00:41;;;;;;;;;;;;;;;-155.54;100.00;57697.75;5013998;28;20103;-65
2022/04/22 09:03:06;;;;;;;;;;;;;;;-155.54;100.00;57697.75;5008154;28;20417;-65
2022/04/22 09:05:31;;;;;;;;;;;;;;;-155.54;100.00;57697.75;5011599;28;20466;-66
2022/04/22 09:07:56;;;;;;;;;;;;;;;-155.54;100.00;57697.75;5010934;28;20154;-66
2022/04/22 09:10:22;;;;;;;;;;;;;;;-155.54;100.00;57697.75;5021259;28;19951;-66
2022/04/22 09:12:54;;;;;;;;;;;;;;;-155.54;100.00;57697.75;5005515;28;20362;-66
2022/04/22 09:15:23;;;;;;;;;;;;;;;-155.54;100.00;57697.75;5013315;28;20334;-66
2022/04/22 09:17:49;;;;;;;;;;;;;;;-155.54;100.00;57697.75;5010847;28;19942;-65
2022/04/22 09:20:15;;;;;;;;;;;;;;;-155.54;100.00;57697.75;4995599;28;20493;-66
2022/04/22 09:22:40;;;;;;;;;;;;;;;-155.54;100.00;57697.75;4991431;28;19950;-66
2022/04/22 09:25:05;;;;;;;;;;;;;;;-155.54;100.00;57697.75;5030237;28;19961;-66
2022/04/22 09:27:32;;;;;;;;;;;;;;;-155.54;100.00;57697.75;5033858;28;20355;-66
2022/04/22 09:29:57;;;;;;;;;;;;;;;-155.54;100.00;57697.75;5012266;28;20316;-66
2022/04/22 09:32:29;;;;;;;;;;;;;;;-155.54;100.00;57697.75;5006895;28;20061;-66
2022/04/22 09:34:55;;;;;;;;;;;;;;;-155.54;100.00;57697.75;4995971;28;20179;-65
2022/04/22 09:42:52;;;;;;;;;;;;;;;-155.54;100.00;57697.75;4989884;28;19941;-66
2022/04/22 09:45:17;;;;;;;;;;;;;;;-155.54;100.00;57697.75;5013912;28;19991;-66
2022/04/22 09:47:43;;;;;;;;;;;;;;;-155.54;100.00;57697.75;5001849;28;20498;-66
2022/04/22 09:50:10;;;;;;;;;;;;;;;-155.54;100.00;57697.75;5007307;28;19997;-66
2022/04/22 09:52:36;;;;;;;;;;;;;;;-155.54;100.00;57697.75;5004605;28;19998;-65
2022/04/22 09:55:02;;;;;;;;;;;;;;;-155.54;100.00;57697.75;5017858;28;20072;-65
2022/04/22 09:57:52;;;;;;;;;;;;;;;-155.54;100.00;57697.75;5009235;28;19956;-65
2022/04/22 10:00:17;;;;;;;;;;;;;;;-155.54;100.00;57697.75;4993284;28;19959;-65
2022/04/22 10:02:42;;;;;;;;;;;;;;;-155.54;100.00;57697.75;5012854;28;19936;-65
2022/04/22 10:05:09;;;;;;;;;;;;;;;-155.54;100.00;57697.75;5011065;28;20055;-65
2022/04/22 10:07:34;;;;;;;;;;;;;;;-155.54;100.00;57697.75;5007232;28;20016;-64
2022/04/22 10:10:00;;;;;;;;;;;;;;;-155.54;100.00;57697.75;5010791;28;20007;-64
2022/04/22 10:12:25;;;;;;;;;;;;;;;-155.54;100.00;57697.75;5007078;28;20019;-64
2022/04/22 10:14:53;;;;;;;;;;;;;;;-155.54;100.00;57697.75;5012022;28;20257;-65
2022/04/22 10:17:18;;;;;;;;;;;;;;;-155.54;100.00;57697.75;5007672;28;19952;-64
2022/04/22 10:19:44;;;;;;;;;;;;;;;-155.54;100.00;57697.75;5011874;28;19994;-64
2022/04/22 10:22:10;;;;;;;;;;;;;;;-155.54;100.00;57697.75;4996696;28;19988;-65
2022/04/22 10:24:35;;;;;;;;;;;;;;;-155.54;100.00;57697.75;4995449;28;20474;-64
2022/04/22 10:27:02;;;;;;;;;;;;;;;-155.54;100.00;57697.75;5027946;28;19948;-65
2022/04/22 10:29:29;;;;;;;;;;;;;;;-155.54;100.00;57697.75;4993657;28;20005;-65
2022/04/22 10:31:54;;;;;;;;;;;;;;;-155.54;100.00;57697.75;5027181;28;19925;-65
2022/04/22 10:34:19;;;;;;;;;;;;;;;-155.54;100.00;57697.75;4993988;28;19955;-65
2022/04/22 10:36:46;;;;;;;;;;;;;;;-155.54;100.00;57697.75;4996447;28;19925;-66
2022/04/22 10:39:11;;;;;;;;;;;;;;;-155.54;100.00;57697.75;4992020;28;20414;-65
2022/04/22 10:41:49;;;;;;;;;;;;;;;-155.54;100.00;57697.75;5004911;28;19979;-65
2022/04/22 10:47:13;;;;;;;;;;;;;;;-155.54;100.00;57697.75;4986447;28;19935;-64
2022/04/22 10:49:39;;;;;;;;;;;;;;;-155.54;100.00;57697.75;5005814;28;19948;-65
2022/04/22 10:52:19;;;;;;;;;;;;;;;-155.54;100.00;57697.75;5020143;28;20203;-65
2022/04/22 10:54:53;;;;;;;;;;;;;;;-155.54;100.00;57697.75;5020483;28;20017;-65
2022/04/22 10:57:27;;;;;;;;;;;;;;;-155.54;100.00;57697.75;5001908;28;19933;-65
2022/04/22 11:00:07;;;;;;;;;;;;;;;-155.54;100.00;57697.75;4982462;28;19944;-65
2022/04/22 11:02:34;;;;;;;;;;;;;;;-155.54;100.00;57697.75;4990277;28;19983;-66
2022/04/22 11:05:20;;;;;;;;;;;;;;;-155.54;100.00;57697.75;4991243;28;19975;-66
2022/04/22 11:07:58;;;;;;;;;;;;;;;-155.54;100.00;57697.75;4989559;28;20239;-66
2022/04/22 11:10:24;;;;;;;;;;;;;;;-155.54;100.00;57697.75;4995291;28;19914;-65
2022/04/22 11:12:51;;;;;;;;;;;;;;;-155.54;100.00;57697.75;5008592;28;20170;-65
2022/04/22 11:15:35;;;;;;;;;;;;;;;-155.54;100.00;57697.75;5015169;28;19933;-66
2022/04/22 11:18:00;;;;;;;;;;;;;;;-155.54;100.00;57697.75;4991304;28;19941;-66
2022/04/22 11:20:25;;;;;;;;;;;;;;;-155.54;100.00;57697.75;4987069;28;20173;-66
2022/04/22 11:22:57;;;;;;;;;;;;;;;-155.54;100.00;57697.75;4997410;28;20284;-65
2022/04/22 11:25:25;;;;;;;;;;;;;;;-155.54;100.00;57697.75;5009149;28;19951;-66
2022/04/22 11:27:52;;;;;;;;;;;;;;;-155.54;100.00;57697.75;5019983;28;19975;-65
2022/04/22 11:30:17;;;;;;;;;;;;;;;-155.54;100.00;57697.75;5018936;28;19917;-65
2022/04/22 11:32:44;;;;;;;;;;;;;;;-155.54;100.00;57697.75;5019700;28;19956;-65
2022/04/22 11:35:18;;;;;;;;;;;;;;;-155.54;100.00;57697.75;5009462;28;20359;-65
2022/04/22 11:37:44;;;;;;;;;;;;;;;-155.54;100.00;57697.75;5013729;28;20717;-65
2022/04/22 11:40:09;;;;;;;;;;;;;;;-155.54;100.00;57697.75;5018476;28;19953;-66
2022/04/22 11:42:44;;;;;;;;;;;;;;;-155.54;100.00;57697.75;5007762;28;19928;-66
2022/04/22 11:45:11;;;;;;;;;;;;;;;-155.54;100.00;57697.75;5019299;28;19917;-66
2022/04/22 11:47:37;;;;;;;;;;;;;;;-155.54;100.00;57697.75;5019946;28;20451;-65
2022/04/22 11:50:02;;;;;;;;;;;;;;;-155.54;100.00;57697.75;5008539;28;20024;-65
2022/04/22 11:52:29;;;;;;;;;;;;;;;-155.54;100.00;57697.75;5015338;28;19999;-65
2022/04/22 11:54:57;;;;;;;;;;;;;;;-155.54;100.00;57697.75;5019096;28;19917;-66
2022/04/22 11:57:22;;;;;;;;;;;;;;;-155.54;100.00;57697.75;5014276;28;19951;-65
2022/04/22 12:05:32;;;;;;;;;;;;;;;-155.54;100.00;57697.75;5014628;28;19941;-65
2022/04/22 12:05:32;;;;;;;;;;;;;;;-155.54;100.00;57697.75;4999156;28;20411;-66
2022/04/22 12:08:02;;;;;;;;;;;;;;;-155.54;100.00;57697.75;5006164;28;20023;-65
2022/04/22 12:10:27;;;;;;;;;;;;;;;-155.54;100.00;57697.75;5031287;28;19990;-65
2022/04/22 12:12:56;;;;;;;;;;;;;;;-155.54;100.00;57697.75;5039409;28;20262;-65
2022/04/22 12:15:21;;;;;;;;;;;;;;;-155.54;100.00;57697.75;5031554;28;20126;-65
2022/04/22 12:17:46;;;;;;;;;;;;;;;-155.54;100.00;57697.75;5022780;28;20390;-65
2022/04/22 12:20:12;;;;;;;;;;;;;;;-155.54;100.00;57697.75;4999151;28;19953;-65
2022/04/22 12:22:37;;;;;;;;;;;;;;;-155.54;100.00;57697.75;4980513;28;19952;-65
2022/04/22 12:25:12;;;;;;;;;;;;;;;-155.54;100.00;57697.75;5009905;28;20019;-64
2022/04/22 12:27:38;;;;;;;;;;;;;;;-155.54;100.00;57697.75;5038997;28;20011;-65
2022/04/22 12:30:04;;;;;;;;;;;;;;;-155.54;100.00;57697.75;5034213;28;20031;-65
2022/04/22 12:32:31;;;;;;;;;;;;;;;-155.54;100.00;57697.75;5009538;28;20586;-65
2022/04/22 12:35:22;;;;;;;;;;;;;;;-155.54;100.00;57697.75;5011680;28;19990;-66
2022/04/22 12:37:52;;;;;;;;;;;;;;;-155.54;100.00;57697.75;4994208;28;20012;-65
2022/04/22 12:40:21;;;;;;;;;;;;;;;-155.54;100.00;57697.75;5011345;28;20217;-66
2022/04/22 12:42:46;;;;;;;;;;;;;;;-155.54;100.00;57697.75;5004721;28;19933;-65
2022/04/22 12:54:04;;;;;;;;;;;;;;;-155.54;100.00;57697.75;5028863;28;19931;-65
2022/04/22 12:56:29;;;;;;;;;;;;;;;-155.54;100.00;57697.75;5027709;28;20532;-65
2022/04/22 12:58:55;;;;;;;;;;;;;;;-155.54;100.00;57697.75;5028606;28;20107;-65
2022/04/22 13:01:21;;;;;;;;;;;;;;;-155.54;100.00;57697.75;5021592;28;20195;-65
2022/04/22 13:03:47;;;;;;;;;;;;;;;-155.54;100.00;57697.75;5035672;28;19917;-65
2022/04/22 13:06:14;;;;;;;;;;;;;;;-155.54;100.00;57697.75;5028900;28;19935;-66
2022/04/22 13:08:39;;;;;;;;;;;;;;;-155.54;100.00;57697.75;5026891;28;20058;-65
2022/04/22 13:11:08;;;;;;;;;;;;;;;-155.54;100.00;57697.75;5027968;28;20500;-65
2022/04/22 13:13:33;;;;;;;;;;;;;;;-155.54;100.00;57697.75;5037997;28;19916;-65
2022/04/22 13:15:59;;;;;;;;;;;;;;;-155.54;100.00;57697.75;5029421;28;19925;-65
2022/04/22 13:18:24;;;;;;;;;;;;;;;-155.54;100.00;57697.75;5027842;28;20436;-64